createdAt,value
2023-04-19T00:00:36.127Z,1022.17
2023-04-19T00:01:36.086Z,1022.14
2023-04-19T00:02:36.247Z,1021.99
2023-04-19T00:03:36.405Z,1022.11
2023-04-19T00:04:36.099Z,1022.12
2023-04-19T00:05:36.039Z,1022.16
2023-04-19T00:06:36.023Z,1022.17
2023-04-19T00:07:36.075Z,1022.06
2023-04-19T00:08:36.020Z,1022.11
2023-04-19T00:09:36.020Z,1022.07
2023-04-19T00:10:36.031Z,1022.14
2023-04-19T00:11:35.974Z,1022.16
2023-04-19T00:12:35.961Z,1022.19
2023-04-19T00:13:35.949Z,1022.17
2023-04-19T00:14:35.989Z,1022.19
2023-04-19T00:15:35.942Z,1022.18
2023-04-19T00:16:35.977Z,1022.14
2023-04-19T00:17:35.953Z,1022.05
2023-04-19T00:18:35.909Z,1022.10
2023-04-19T00:19:35.885Z,1022.13
2023-04-19T00:20:35.872Z,1022.08
2023-04-19T00:21:35.879Z,1022.12
2023-04-19T00:22:35.854Z,1022.09
2023-04-19T00:23:35.864Z,1022.08
2023-04-19T00:24:35.834Z,1022.05
2023-04-19T00:25:35.822Z,1022.06
2023-04-19T00:26:35.820Z,1022.04
2023-04-19T00:27:35.800Z,1022.04
2023-04-19T00:28:35.873Z,1022.06
2023-04-19T00:29:35.800Z,1022.07
2023-04-19T00:30:35.802Z,1022.06
2023-04-19T00:31:35.794Z,1022.01
2023-04-19T00:32:35.763Z,1022.03
2023-04-19T00:33:35.732Z,1022.01
2023-04-19T00:34:35.714Z,1022.09
2023-04-19T00:35:35.734Z,1022.06
2023-04-19T00:36:35.708Z,1022.10
2023-04-19T00:37:35.705Z,1022.13
2023-04-19T00:38:35.672Z,1022.10
2023-04-19T00:39:35.736Z,1022.12
2023-04-19T00:40:35.663Z,1022.09
2023-04-19T00:41:35.710Z,1022.06
2023-04-19T00:42:36.287Z,1022.07
2023-04-19T00:43:35.620Z,1022.02
2023-04-19T00:44:35.612Z,1022.04
2023-04-19T00:45:35.609Z,1022.09
2023-04-19T00:46:35.610Z,1022.06
2023-04-19T00:47:35.776Z,1022.06
2023-04-19T00:48:35.563Z,1022.04
2023-04-19T00:49:35.599Z,1022.07
2023-04-19T00:50:35.581Z,1022.08
2023-04-19T00:51:35.553Z,1022.01
2023-04-19T00:52:35.520Z,1022.04
2023-04-19T00:53:35.506Z,1022.03
2023-04-19T00:54:35.534Z,1022.05
2023-04-19T00:55:35.484Z,1022.07
2023-04-19T00:56:35.486Z,1022.10
2023-04-19T00:57:35.458Z,1022.08
2023-04-19T00:58:35.462Z,1022.08
2023-04-19T00:59:36.260Z,1022.05
2023-04-19T01:00:35.453Z,1022.06
2023-04-19T01:01:35.477Z,1022.05
2023-04-19T01:02:35.509Z,1022.02
2023-04-19T01:03:35.649Z,1022.01
2023-04-19T01:04:35.564Z,1022.09
2023-04-19T01:05:35.371Z,1022.07
2023-04-19T01:06:35.423Z,1022.12
2023-04-19T01:07:35.351Z,1022.10
2023-04-19T01:08:35.337Z,1022.07
2023-04-19T01:09:35.327Z,1022.15
2023-04-19T01:10:35.317Z,1022.03
2023-04-19T01:11:35.786Z,1022.06
2023-04-19T01:12:35.298Z,1022.03
2023-04-19T01:13:35.282Z,1022.09
2023-04-19T01:14:35.270Z,1022.09
2023-04-19T01:15:35.395Z,1022.10
2023-04-19T01:16:35.262Z,1022.02
2023-04-19T01:17:35.272Z,1022.05
2023-04-19T01:18:35.237Z,1022.09
2023-04-19T01:19:35.244Z,1022.09
2023-04-19T01:20:35.267Z,1022.06
2023-04-19T01:21:35.191Z,1022.02
2023-04-19T01:22:35.194Z,1021.98
2023-04-19T01:23:35.182Z,1021.99
2023-04-19T01:24:35.164Z,1022.03
2023-04-19T01:25:35.772Z,1022.00
2023-04-19T01:26:35.140Z,1022.03
2023-04-19T01:27:35.263Z,1021.97
2023-04-19T01:28:35.125Z,1022.00
2023-04-19T01:29:35.135Z,1022.04
2023-04-19T01:30:35.129Z,1022.02
2023-04-19T01:31:35.138Z,1022.07
2023-04-19T01:32:35.167Z,1022.04
2023-04-19T01:33:35.076Z,1022.03
2023-04-19T01:34:35.069Z,1022.06
2023-04-19T01:35:35.075Z,1022.03
2023-04-19T01:36:35.050Z,1022.05
2023-04-19T01:37:35.016Z,1022.07
2023-04-19T01:38:35.064Z,1022.06
2023-04-19T01:39:35.025Z,1022.08
2023-04-19T01:40:35.031Z,1022.04
2023-04-19T01:41:35.074Z,1022.03
2023-04-19T01:42:34.992Z,1022.03
2023-04-19T01:43:35.077Z,1022.05
2023-04-19T01:44:34.986Z,1022.04
2023-04-19T01:45:35.020Z,1022.03
2023-04-19T01:46:35.016Z,1021.97
2023-04-19T01:47:34.978Z,1021.98
2023-04-19T01:48:34.903Z,1021.94
2023-04-19T01:49:34.899Z,1022.00
2023-04-19T01:50:34.891Z,1021.95
2023-04-19T01:51:34.885Z,1021.96
2023-04-19T01:52:34.861Z,1021.93
2023-04-19T01:53:34.837Z,1021.96
2023-04-19T01:54:34.855Z,1021.87
2023-04-19T01:55:34.824Z,1021.88
2023-04-19T01:56:34.833Z,1021.97
2023-04-19T01:57:34.813Z,1021.91
2023-04-19T01:58:34.794Z,1021.89
2023-04-19T01:59:34.800Z,1021.91
2023-04-19T02:00:34.818Z,1021.94
2023-04-19T02:01:34.773Z,1021.93
2023-04-19T02:02:34.851Z,1021.89
2023-04-19T02:03:34.883Z,1021.81
2023-04-19T02:04:34.766Z,1021.89
2023-04-19T02:05:34.713Z,1021.93
2023-04-19T02:06:34.712Z,1021.89
2023-04-19T02:07:34.772Z,1021.88
2023-04-19T02:08:34.686Z,1021.86
2023-04-19T02:09:34.662Z,1021.88
2023-04-19T02:10:34.675Z,1021.88
2023-04-19T02:11:34.640Z,1021.84
2023-04-19T02:12:34.639Z,1021.84
2023-04-19T02:13:34.623Z,1021.91
2023-04-19T02:14:34.671Z,1021.86
2023-04-19T02:15:34.618Z,1021.80
2023-04-19T02:16:36.109Z,1021.82
2023-04-19T02:17:34.619Z,1021.83
2023-04-19T02:18:34.596Z,1021.79
2023-04-19T02:19:34.699Z,1021.84
2023-04-19T02:20:34.556Z,1021.83
2023-04-19T02:21:34.570Z,1021.81
2023-04-19T02:22:34.532Z,1021.76
2023-04-19T02:23:34.545Z,1021.77
2023-04-19T02:24:34.523Z,1021.77
2023-04-19T02:25:34.510Z,1021.79
2023-04-19T02:26:35.282Z,1021.75
2023-04-19T02:27:34.460Z,1021.74
2023-04-19T02:28:34.517Z,1021.74
2023-04-19T02:29:34.441Z,1021.74
2023-04-19T02:30:34.465Z,1021.71
2023-04-19T02:31:34.473Z,1021.71
2023-04-19T02:32:34.432Z,1021.74
2023-04-19T02:33:34.398Z,1021.63
2023-04-19T02:34:34.403Z,1021.68
2023-04-19T02:35:34.386Z,1021.66
2023-04-19T02:36:34.366Z,1021.68
2023-04-19T02:37:34.351Z,1021.68
2023-04-19T02:38:34.362Z,1021.67
2023-04-19T02:39:34.371Z,1021.71
2023-04-19T02:40:34.328Z,1021.72
2023-04-19T02:41:34.308Z,1021.67
2023-04-19T02:42:34.301Z,1021.63
2023-04-19T02:43:34.297Z,1021.62
2023-04-19T02:44:34.322Z,1021.57
2023-04-19T02:45:34.418Z,1021.62
2023-04-19T02:46:34.317Z,1021.61
2023-04-19T02:47:34.321Z,1021.62
2023-04-19T02:48:34.240Z,1021.62
2023-04-19T02:49:34.241Z,1021.61
2023-04-19T02:50:34.209Z,1021.60
2023-04-19T02:51:34.214Z,1021.56
2023-04-19T02:52:34.807Z,1021.59
2023-04-19T02:53:34.192Z,1021.54
2023-04-19T02:54:34.168Z,1021.52
2023-04-19T02:55:34.176Z,1021.55
2023-04-19T02:56:34.140Z,1021.48
2023-04-19T02:57:34.148Z,1021.48
2023-04-19T02:58:34.122Z,1021.49
2023-04-19T02:59:34.123Z,1021.42
2023-04-19T03:00:34.179Z,1021.44
2023-04-19T03:01:34.139Z,1021.39
2023-04-19T03:02:34.161Z,1021.42
2023-04-19T03:03:34.111Z,1021.43
2023-04-19T03:04:34.097Z,1021.43
2023-04-19T03:05:34.039Z,1021.43
2023-04-19T03:06:34.075Z,1021.47
2023-04-19T03:07:34.043Z,1021.45
2023-04-19T03:08:34.006Z,1021.42
2023-04-19T03:09:34.017Z,1021.42
2023-04-19T03:10:33.989Z,1021.36
2023-04-19T03:11:34.017Z,1021.44
2023-04-19T03:12:33.967Z,1021.39
2023-04-19T03:13:33.955Z,1021.45
2023-04-19T03:14:33.952Z,1021.37
2023-04-19T03:15:34.014Z,1021.36
2023-04-19T03:16:33.982Z,1021.38
2023-04-19T03:17:33.959Z,1021.36
2023-04-19T03:18:33.905Z,1021.35
2023-04-19T03:19:33.901Z,1021.33
2023-04-19T03:20:33.888Z,1021.34
2023-04-19T03:21:33.907Z,1021.37
2023-04-19T03:22:33.847Z,1021.34
2023-04-19T03:23:33.836Z,1021.39
2023-04-19T03:24:35.565Z,1021.33
2023-04-19T03:25:34.798Z,1021.33
2023-04-19T03:26:33.819Z,1021.34
2023-04-19T03:27:33.811Z,1021.30
2023-04-19T03:28:33.799Z,1021.30
2023-04-19T03:29:33.770Z,1021.36
2023-04-19T03:30:33.766Z,1021.28
2023-04-19T03:31:33.881Z,1021.24
2023-04-19T03:32:33.816Z,1021.25
2023-04-19T03:33:33.742Z,1021.17
2023-04-19T03:34:33.752Z,1021.20
2023-04-19T03:35:33.704Z,1021.16
2023-04-19T03:36:33.692Z,1021.22
2023-04-19T03:37:33.733Z,1021.20
2023-04-19T03:38:33.670Z,1021.15
2023-04-19T03:39:33.650Z,1021.22
2023-04-19T03:40:33.648Z,1021.19
2023-04-19T03:41:33.643Z,1021.17
2023-04-19T03:42:33.640Z,1021.13
2023-04-19T03:43:33.677Z,1021.10
2023-04-19T03:44:33.607Z,1021.16
2023-04-19T03:45:33.588Z,1021.18
2023-04-19T03:46:33.637Z,1021.13
2023-04-19T03:47:33.606Z,1021.14
2023-04-19T03:48:33.563Z,1021.13
2023-04-19T03:49:33.538Z,1021.11
2023-04-19T03:50:33.530Z,1021.10
2023-04-19T03:51:33.526Z,1021.10
2023-04-19T03:52:33.512Z,1021.13
2023-04-19T03:53:33.518Z,1021.13
2023-04-19T03:54:33.489Z,1021.11
2023-04-19T03:55:33.489Z,1021.13
2023-04-19T03:56:33.524Z,1021.07
2023-04-19T03:57:33.474Z,1021.05
2023-04-19T03:58:33.497Z,1021.07
2023-04-19T03:59:33.510Z,1021.13
2023-04-19T04:00:33.424Z,1021.11
2023-04-19T04:01:33.437Z,1021.08
2023-04-19T04:02:33.534Z,1021.03
2023-04-19T04:03:33.567Z,1021.02
2023-04-19T04:04:33.588Z,1021.03
2023-04-19T04:05:33.415Z,1021.03
2023-04-19T04:06:33.354Z,1021.02
2023-04-19T04:07:33.350Z,1021.05
2023-04-19T04:08:33.352Z,1021.03
2023-04-19T04:09:33.318Z,1021.04
2023-04-19T04:10:33.327Z,1021.00
2023-04-19T04:11:33.301Z,1021.00
2023-04-19T04:12:33.291Z,1020.98
2023-04-19T04:13:33.284Z,1021.03
2023-04-19T04:14:33.279Z,1021.04
2023-04-19T04:15:33.417Z,1021.03
2023-04-19T04:16:33.311Z,1021.03
2023-04-19T04:17:33.260Z,1020.99
2023-04-19T04:18:33.245Z,1021.01
2023-04-19T04:19:33.212Z,1020.90
2023-04-19T04:20:33.203Z,1020.94
2023-04-19T04:21:33.212Z,1020.94
2023-04-19T04:22:33.185Z,1020.92
2023-04-19T04:23:33.186Z,1020.94
2023-04-19T04:24:33.158Z,1020.94
2023-04-19T04:25:33.199Z,1020.89
2023-04-19T04:26:33.134Z,1020.94
2023-04-19T04:27:33.159Z,1020.91
2023-04-19T04:28:33.116Z,1020.96
2023-04-19T04:29:33.181Z,1020.93
2023-04-19T04:30:33.102Z,1020.96
2023-04-19T04:31:33.138Z,1020.90
2023-04-19T04:32:33.121Z,1020.93
2023-04-19T04:33:33.098Z,1020.84
2023-04-19T04:34:33.070Z,1020.85
2023-04-19T04:35:33.073Z,1020.83
2023-04-19T04:36:33.046Z,1020.85
2023-04-19T04:37:33.034Z,1020.86
2023-04-19T04:38:33.074Z,1020.84
2023-04-19T04:39:33.011Z,1020.85
2023-04-19T04:40:33.004Z,1020.80
2023-04-19T04:41:33.027Z,1020.83
2023-04-19T04:42:32.982Z,1020.80
2023-04-19T04:43:32.971Z,1020.81
2023-04-19T04:44:32.978Z,1020.81
2023-04-19T04:45:32.996Z,1020.83
2023-04-19T04:46:32.943Z,1020.81
2023-04-19T04:47:33.016Z,1020.80
2023-04-19T04:48:32.950Z,1020.74
2023-04-19T04:49:32.952Z,1020.78
2023-04-19T04:50:32.901Z,1020.74
2023-04-19T04:51:39.914Z,1020.73
2023-04-19T04:52:32.871Z,1020.75
2023-04-19T04:53:32.882Z,1020.77
2023-04-19T04:54:32.852Z,1020.80
2023-04-19T04:55:32.843Z,1020.71
2023-04-19T04:56:32.882Z,1020.74
2023-04-19T04:57:32.826Z,1020.72
2023-04-19T04:58:32.824Z,1020.64
2023-04-19T04:59:32.813Z,1020.62
2023-04-19T05:00:32.798Z,1020.64
2023-04-19T05:01:32.869Z,1020.64
2023-04-19T05:02:32.939Z,1020.66
2023-04-19T05:03:32.815Z,1020.68
2023-04-19T05:04:32.791Z,1020.71
2023-04-19T05:05:32.731Z,1020.69
2023-04-19T05:06:32.719Z,1020.68
2023-04-19T05:07:32.724Z,1020.67
2023-04-19T05:08:32.702Z,1020.66
2023-04-19T05:09:32.774Z,1020.62
2023-04-19T05:10:32.685Z,1020.61
2023-04-19T05:11:32.664Z,1020.59
2023-04-19T05:12:32.653Z,1020.55
2023-04-19T05:13:32.639Z,1020.61
2023-04-19T05:14:32.645Z,1020.52
2023-04-19T05:15:32.629Z,1020.54
2023-04-19T05:16:32.638Z,1020.60
2023-04-19T05:17:33.333Z,1020.52
2023-04-19T05:18:32.586Z,1020.54
2023-04-19T05:19:32.606Z,1020.52
2023-04-19T05:20:32.566Z,1020.52
2023-04-19T05:21:32.559Z,1020.47
2023-04-19T05:22:32.543Z,1020.48
2023-04-19T05:23:32.532Z,1020.47
2023-04-19T05:24:32.542Z,1020.40
2023-04-19T05:25:32.506Z,1020.44
2023-04-19T05:26:32.513Z,1020.40
2023-04-19T05:27:32.494Z,1020.44
2023-04-19T05:28:32.485Z,1020.41
2023-04-19T05:29:32.483Z,1020.43
2023-04-19T05:30:32.486Z,1020.38
2023-04-19T05:31:32.558Z,1020.37
2023-04-19T05:32:32.482Z,1020.43
2023-04-19T05:33:32.435Z,1020.36
2023-04-19T05:34:32.429Z,1020.39
2023-04-19T05:35:32.493Z,1020.32
2023-04-19T05:36:32.402Z,1020.31
2023-04-19T05:37:32.391Z,1020.39
2023-04-19T05:38:32.364Z,1020.34
2023-04-19T05:39:32.370Z,1020.35
2023-04-19T05:40:32.343Z,1020.35
2023-04-19T05:41:32.334Z,1020.32
2023-04-19T05:42:32.321Z,1020.36
2023-04-19T05:43:32.318Z,1020.29
2023-04-19T05:44:32.313Z,1020.32
2023-04-19T05:45:32.293Z,1020.25
2023-04-19T05:46:32.402Z,1020.32
2023-04-19T05:47:32.318Z,1020.36
2023-04-19T05:48:32.255Z,1020.37
2023-04-19T05:49:32.275Z,1020.43
2023-04-19T05:50:32.235Z,1020.36
2023-04-19T05:51:32.247Z,1020.29
2023-04-19T05:52:32.212Z,1020.32
2023-04-19T05:53:32.202Z,1020.35
2023-04-19T05:54:32.212Z,1020.29
2023-04-19T05:55:32.180Z,1020.31
2023-04-19T05:56:32.172Z,1020.32
2023-04-19T05:57:32.172Z,1020.32
2023-04-19T05:58:32.150Z,1020.34
2023-04-19T05:59:32.159Z,1020.33
2023-04-19T06:00:32.125Z,1020.36
2023-04-19T06:01:32.116Z,1020.21
2023-04-19T06:02:32.229Z,1020.26
2023-04-19T06:03:32.474Z,1020.26
2023-04-19T06:04:32.293Z,1020.25
2023-04-19T06:05:32.093Z,1020.23
2023-04-19T06:06:32.058Z,1020.21
2023-04-19T06:07:34.527Z,1020.26
2023-04-19T06:08:33.036Z,1020.18
2023-04-19T06:09:32.044Z,1020.25
2023-04-19T06:10:44.512Z,1020.19
2023-04-19T06:11:42.713Z,1020.23
2023-04-19T06:12:32.988Z,1020.18
2023-04-19T06:13:31.979Z,1020.20
2023-04-19T06:14:31.993Z,1020.16
2023-04-19T06:15:31.959Z,1020.21
2023-04-19T06:16:32.009Z,1020.14
2023-04-19T06:17:31.972Z,1020.15
2023-04-19T06:18:31.936Z,1020.17
2023-04-19T06:19:31.921Z,1020.20
2023-04-19T06:20:31.902Z,1020.17
2023-04-19T06:21:31.887Z,1020.19
2023-04-19T06:22:31.879Z,1020.19
2023-04-19T06:23:31.983Z,1020.17
2023-04-19T06:24:33.705Z,1020.08
2023-04-19T06:25:31.858Z,1020.10
2023-04-19T06:26:31.834Z,1020.16
2023-04-19T06:27:31.825Z,1020.10
2023-04-19T06:28:31.825Z,1020.12
2023-04-19T06:29:31.801Z,1020.10
2023-04-19T06:30:31.789Z,1020.06
2023-04-19T06:31:31.809Z,1020.01
2023-04-19T06:32:31.852Z,1020.09
2023-04-19T06:33:31.764Z,1020.04
2023-04-19T06:34:31.812Z,1020.03
2023-04-19T06:35:31.743Z,1020.01
2023-04-19T06:36:31.736Z,1020.01
2023-04-19T06:37:31.710Z,1020.03
2023-04-19T06:38:31.700Z,1019.93
2023-04-19T06:39:31.961Z,1019.98
2023-04-19T06:40:31.689Z,1020.02
2023-04-19T06:41:31.681Z,1020.04
2023-04-19T06:42:31.657Z,1019.90
2023-04-19T06:43:31.645Z,1020.01
2023-04-19T06:44:31.630Z,1019.96
2023-04-19T06:45:31.704Z,1020.00
2023-04-19T06:46:31.655Z,1019.98
2023-04-19T06:47:33.474Z,1019.96
2023-04-19T06:48:31.592Z,1019.94
2023-04-19T06:49:31.585Z,1019.90
2023-04-19T06:50:31.567Z,1019.87
2023-04-19T06:51:31.570Z,1019.85
2023-04-19T06:52:31.570Z,1019.89
2023-04-19T06:53:31.555Z,1019.85
2023-04-19T06:54:31.520Z,1019.75
2023-04-19T06:55:31.541Z,1019.81
2023-04-19T06:56:31.496Z,1019.76
2023-04-19T06:57:31.506Z,1019.69
2023-04-19T06:58:32.784Z,1019.72
2023-04-19T06:59:31.469Z,1019.73
2023-04-19T07:00:31.462Z,1019.73
2023-04-19T07:01:31.553Z,1019.69
2023-04-19T07:02:31.604Z,1019.62
2023-04-19T07:03:31.609Z,1019.64
2023-04-19T07:04:31.601Z,1019.58
2023-04-19T07:05:31.437Z,1019.63
2023-04-19T07:06:31.385Z,1019.61
2023-04-19T07:07:31.529Z,1019.59
2023-04-19T07:08:46.491Z,1019.63
2023-04-19T07:09:32.386Z,1019.59
2023-04-19T07:10:31.345Z,1019.59
2023-04-19T07:11:31.378Z,1019.63
2023-04-19T07:12:31.337Z,1019.59
2023-04-19T07:13:31.305Z,1019.55
2023-04-19T07:14:31.296Z,1019.57
2023-04-19T07:15:31.303Z,1019.57
2023-04-19T07:16:31.369Z,1019.42
2023-04-19T07:17:31.301Z,1019.58
2023-04-19T07:18:31.252Z,1019.52
2023-04-19T07:19:31.242Z,1019.44
2023-04-19T07:20:31.229Z,1019.47
2023-04-19T07:21:31.234Z,1019.57
2023-04-19T07:22:31.383Z,1019.52
2023-04-19T07:23:31.194Z,1019.47
2023-04-19T07:24:31.196Z,1019.49
2023-04-19T07:25:31.177Z,1019.51
2023-04-19T07:26:31.181Z,1019.39
2023-04-19T07:27:31.179Z,1019.48
2023-04-19T07:28:31.138Z,1019.41
2023-04-19T07:29:31.131Z,1019.44
2023-04-19T07:30:31.115Z,1019.45
2023-04-19T07:31:31.394Z,1019.39
2023-04-19T07:32:31.115Z,1019.37
2023-04-19T07:33:31.280Z,1019.39
2023-04-19T07:34:31.073Z,1019.36
2023-04-19T07:35:31.120Z,1019.26
2023-04-19T07:36:31.051Z,1019.39
2023-04-19T07:37:31.073Z,1019.41
2023-04-19T07:38:31.069Z,1019.40
2023-04-19T07:39:31.030Z,1019.28
2023-04-19T07:40:31.148Z,1019.31
2023-04-19T07:41:31.051Z,1019.35
2023-04-19T07:42:30.987Z,1019.28
2023-04-19T07:43:31.141Z,1019.31
2023-04-19T07:44:30.969Z,1019.25
2023-04-19T07:45:30.960Z,1019.31
2023-04-19T07:46:30.989Z,1019.30
2023-04-19T07:47:30.978Z,1019.22
2023-04-19T07:48:30.920Z,1019.22
2023-04-19T07:49:30.910Z,1019.22
2023-04-19T07:50:30.910Z,1019.28
2023-04-19T07:51:30.902Z,1019.15
2023-04-19T07:52:30.883Z,1019.18
2023-04-19T07:53:30.863Z,1019.19
2023-04-19T07:54:30.854Z,1019.15
2023-04-19T07:55:30.865Z,1019.23
2023-04-19T07:56:30.838Z,1019.25
2023-04-19T07:57:30.828Z,1019.23
2023-04-19T07:58:30.812Z,1019.18
2023-04-19T07:59:30.837Z,1019.27
2023-04-19T08:00:30.816Z,1019.24
2023-04-19T08:01:32.720Z,1019.31
2023-04-19T08:02:30.925Z,1019.21
2023-04-19T08:03:30.986Z,1019.27
2023-04-19T08:04:31.114Z,1019.19
2023-04-19T08:05:30.767Z,1019.16
2023-04-19T08:06:30.825Z,1019.19
2023-04-19T08:07:30.725Z,1019.12
2023-04-19T08:08:30.698Z,1019.19
2023-04-19T08:09:30.737Z,1019.08
2023-04-19T08:10:30.691Z,1019.12
2023-04-19T08:11:30.699Z,1019.14
2023-04-19T08:12:38.352Z,1019.11
2023-04-19T08:13:31.662Z,1019.16
2023-04-19T08:14:35.406Z,1019.02
2023-04-19T08:16:59.145Z,1019.06
2023-04-19T08:17:40.091Z,1019.13
2023-04-19T08:18:31.642Z,1019.09
2023-04-19T08:19:30.588Z,1019.14
2023-04-19T08:20:30.593Z,1019.20
2023-04-19T08:21:40.117Z,1019.08
2023-04-19T08:22:31.560Z,1019.07
2023-04-19T08:23:41.302Z,1019.21
2023-04-19T08:24:31.542Z,1019.22
2023-04-19T08:25:30.540Z,1019.19
2023-04-19T08:26:30.533Z,1019.23
2023-04-19T08:27:30.509Z,1019.32
2023-04-19T08:28:30.496Z,1019.25
2023-04-19T08:29:30.489Z,1019.16
2023-04-19T08:30:30.517Z,1019.25
2023-04-19T08:31:30.601Z,1019.27
2023-04-19T08:32:31.565Z,1019.50
2023-04-19T08:33:30.445Z,1019.00
2023-04-19T08:34:30.427Z,1019.21
2023-04-19T08:35:30.445Z,1019.12
2023-04-19T08:36:39.151Z,1019.17
2023-04-19T08:37:31.404Z,1019.29
2023-04-19T08:38:30.395Z,1019.17
2023-04-19T08:39:33.506Z,1018.87
2023-04-19T08:40:30.377Z,1018.71
2023-04-19T08:41:30.378Z,1018.55
2023-04-19T08:42:36.254Z,1019.09
2023-04-19T08:43:31.339Z,1019.25
2023-04-19T08:44:36.437Z,1019.14
2023-04-19T08:45:31.328Z,1019.08
2023-04-19T08:46:30.359Z,1019.13
2023-04-19T08:47:33.550Z,1019.05
2023-04-19T08:48:30.295Z,1019.13
2023-04-19T08:49:30.868Z,1018.88
2023-04-19T08:50:34.649Z,1018.70
2023-04-19T08:51:31.281Z,1018.63
2023-04-19T08:52:30.244Z,1018.76
2023-04-19T08:53:30.236Z,1018.64
2023-04-19T08:54:30.224Z,1018.60
2023-04-19T08:55:30.214Z,1018.89
2023-04-19T08:56:35.682Z,1018.71
2023-04-19T08:57:31.184Z,1019.20
2023-04-19T08:59:30.167Z,1018.83
2023-04-19T09:00:30.171Z,1019.02
2023-04-19T09:01:34.976Z,1018.95
2023-04-19T09:02:31.341Z,1019.07
2023-04-19T09:03:30.316Z,1019.03
2023-04-19T09:04:36.964Z,1018.95
2023-04-19T09:05:31.367Z,1019.02
2023-04-19T09:06:30.237Z,1018.95
2023-04-19T09:07:30.076Z,1018.92
2023-04-19T09:08:30.122Z,1019.00
2023-04-19T09:10:30.047Z,1018.84
2023-04-19T09:11:30.050Z,1018.54
2023-04-19T09:12:30.027Z,1018.57
2023-04-19T09:13:30.012Z,1018.32
2023-04-19T09:14:30.056Z,1018.88
2023-04-19T09:15:30.008Z,1018.93
2023-04-19T09:16:30.011Z,1018.86
2023-04-19T09:17:30.046Z,1018.67
2023-04-19T09:18:32.143Z,1018.70
2023-04-19T09:19:30.290Z,1018.81
2023-04-19T09:20:29.939Z,1018.63
2023-04-19T09:21:29.947Z,1018.82
2023-04-19T09:22:30.438Z,1018.54
2023-04-19T09:23:29.912Z,1018.65
2023-04-19T09:24:41.488Z,1018.56
2023-04-19T09:25:49.261Z,1018.70
2023-04-19T09:26:30.930Z,1018.54
2023-04-19T09:27:29.901Z,1018.70
2023-04-19T09:28:29.864Z,1018.74
2023-04-19T09:29:29.846Z,1018.77
2023-04-19T09:30:33.942Z,1018.03
2023-04-19T09:31:48.132Z,1017.99
2023-04-19T09:32:30.917Z,1018.69
2023-04-19T09:33:29.930Z,1018.57
2023-04-19T09:34:29.792Z,1018.48
2023-04-19T09:35:29.809Z,1018.13
2023-04-19T09:36:29.768Z,1018.24
2023-04-19T09:38:29.748Z,1018.27
2023-04-19T09:39:29.740Z,1018.65
2023-04-19T09:40:29.745Z,1018.72
2023-04-19T09:41:30.422Z,1018.77
2023-04-19T09:42:50.966Z,1018.74
2023-04-19T09:43:58.151Z,1018.61
2023-04-19T09:45:31.134Z,1018.13
2023-04-19T09:46:29.704Z,1018.66
2023-04-19T09:47:29.662Z,1018.73
2023-04-19T09:48:29.655Z,1018.71
2023-04-19T09:49:41.686Z,1018.37
2023-04-19T09:50:31.690Z,1018.60
2023-04-19T09:51:29.718Z,1018.64
2023-04-19T09:52:29.602Z,1018.62
2023-04-19T09:53:29.605Z,1018.63
2023-04-19T09:54:29.587Z,1018.66
2023-04-19T09:55:33.387Z,1018.60
2023-04-19T09:56:30.560Z,1018.51
2023-04-19T09:57:29.555Z,1018.49
2023-04-19T09:58:41.708Z,1018.29
2023-04-19T09:59:30.546Z,1018.47
2023-04-19T10:00:33.547Z,1018.58
2023-04-19T10:01:30.534Z,1017.84
2023-04-19T10:02:29.784Z,1018.51
2023-04-19T10:03:29.640Z,1018.46
2023-04-19T10:04:44.022Z,1018.47
2023-04-19T10:05:30.574Z,1018.50
2023-04-19T10:06:42.416Z,1018.62
2023-04-19T10:07:31.297Z,1018.52
2023-04-19T10:08:29.446Z,1018.42
2023-04-19T10:09:29.461Z,1018.55
2023-04-19T10:11:29.412Z,1017.91
2023-04-19T10:13:30.437Z,1017.76
2023-04-19T10:14:29.382Z,1018.18
2023-04-19T10:15:33.878Z,1018.35
2023-04-19T10:16:30.409Z,1018.39
2023-04-19T10:17:29.401Z,1018.42
2023-04-19T10:18:29.357Z,1018.34
2023-04-19T10:19:29.328Z,1018.40
2023-04-19T10:20:29.393Z,1017.71
2023-04-19T10:21:29.328Z,1017.68
2023-04-19T10:22:29.300Z,1017.67
2023-04-19T10:23:29.426Z,1018.28
2023-04-19T10:24:29.311Z,1018.27
2023-04-19T10:25:29.279Z,1018.31
2023-04-19T10:26:29.349Z,1018.14
2023-04-19T10:27:29.251Z,1018.29
2023-04-19T10:28:29.263Z,1018.13
2023-04-19T10:29:29.226Z,1018.16
2023-04-19T10:30:29.231Z,1018.19
2023-04-19T10:31:29.242Z,1018.18
2023-04-19T10:32:29.204Z,1018.30
2023-04-19T10:33:29.181Z,1017.77
2023-04-19T10:34:29.177Z,1018.29
2023-04-19T10:35:29.176Z,1018.13
2023-04-19T10:36:29.176Z,1018.22
2023-04-19T10:37:29.153Z,1017.96
2023-04-19T10:38:29.137Z,1018.15
2023-04-19T10:39:29.144Z,1018.18
2023-04-19T10:40:29.131Z,1018.12
2023-04-19T10:41:29.102Z,1018.22
2023-04-19T10:42:29.095Z,1018.12
2023-04-19T10:43:29.080Z,1018.04
2023-04-19T10:44:29.073Z,1017.89
2023-04-19T10:45:29.121Z,1017.99
2023-04-19T10:46:29.280Z,1017.92
2023-04-19T10:47:29.980Z,1017.94
2023-04-19T10:48:29.039Z,1018.06
2023-04-19T10:49:29.034Z,1017.81
2023-04-19T10:50:29.013Z,1017.59
2023-04-19T10:51:36.077Z,1017.57
2023-04-19T10:52:28.992Z,1017.60
2023-04-19T10:53:28.980Z,1018.05
2023-04-19T10:54:28.977Z,1018.09
2023-04-19T10:55:29.259Z,1018.00
2023-04-19T10:56:28.967Z,1017.82
2023-04-19T10:57:28.935Z,1017.86
2023-04-19T10:58:28.927Z,1017.61
2023-04-19T10:59:28.913Z,1017.55
2023-04-19T11:00:28.904Z,1017.50
2023-04-19T11:01:28.939Z,1017.56
2023-04-19T11:02:29.075Z,1017.62
2023-04-19T11:03:28.951Z,1017.85
2023-04-19T11:04:28.951Z,1017.83
2023-04-19T11:05:28.852Z,1017.62
2023-04-19T11:06:28.901Z,1017.74
2023-04-19T11:07:28.834Z,1017.44
2023-04-19T11:08:28.820Z,1017.37
2023-04-19T11:09:28.824Z,1017.56
2023-04-19T11:10:28.810Z,1017.52
2023-04-19T11:11:28.826Z,1017.70
2023-04-19T11:12:28.792Z,1017.84
2023-04-19T11:13:28.777Z,1017.76
2023-04-19T11:14:28.893Z,1017.96
2023-04-19T11:15:29.496Z,1017.62
2023-04-19T11:16:42.369Z,1017.82
2023-04-19T11:17:29.770Z,1017.65
2023-04-19T11:18:29.063Z,1017.42
2023-04-19T11:19:28.708Z,1017.40
2023-04-19T11:20:28.725Z,1017.50
2023-04-19T11:21:30.392Z,1017.56
2023-04-19T11:22:28.695Z,1017.64
2023-04-19T11:23:28.656Z,1017.71
2023-04-19T11:24:28.648Z,1017.41
2023-04-19T11:25:28.634Z,1017.32
2023-04-19T11:26:28.633Z,1017.33
2023-04-19T11:27:28.720Z,1017.26
2023-04-19T11:28:28.603Z,1017.35
2023-04-19T11:29:28.593Z,1017.40
2023-04-19T11:30:28.609Z,1017.34
2023-04-19T11:31:28.648Z,1017.31
2023-04-19T11:32:28.583Z,1017.32
2023-04-19T11:33:28.544Z,1017.28
2023-04-19T11:34:28.544Z,1017.37
2023-04-19T11:35:28.600Z,1017.34
2023-04-19T11:36:28.516Z,1017.42
2023-04-19T11:37:28.508Z,1017.48
2023-04-19T11:38:28.498Z,1017.61
2023-04-19T11:39:28.526Z,1017.30
2023-04-19T11:40:28.501Z,1017.20
2023-04-19T11:41:28.478Z,1017.32
2023-04-19T11:42:28.476Z,1017.23
2023-04-19T11:43:28.455Z,1017.17
2023-04-19T11:44:28.433Z,1017.21
2023-04-19T11:45:31.171Z,1017.19
2023-04-19T11:46:28.419Z,1017.25
2023-04-19T11:47:28.432Z,1017.11
2023-04-19T11:48:28.388Z,1017.19
2023-04-19T11:49:28.380Z,1017.25
2023-04-19T11:50:28.378Z,1017.18
2023-04-19T11:51:28.354Z,1017.21
2023-04-19T11:52:28.345Z,1017.23
2023-04-19T11:53:28.347Z,1017.21
2023-04-19T11:54:28.338Z,1017.18
2023-04-19T11:55:28.359Z,1017.16
2023-04-19T11:56:28.304Z,1017.25
2023-04-19T11:57:28.292Z,1017.19
2023-04-19T11:58:28.292Z,1017.21
2023-04-19T11:59:28.329Z,1017.17
2023-04-19T12:00:28.260Z,1017.20
2023-04-19T12:01:28.243Z,1017.21
2023-04-19T12:02:28.434Z,1017.19
2023-04-19T12:03:29.265Z,1017.21
2023-04-19T12:04:28.394Z,1017.14
2023-04-19T12:05:28.373Z,1017.10
2023-04-19T12:06:28.213Z,1017.11
2023-04-19T12:07:28.185Z,1017.04
2023-04-19T12:08:28.182Z,1017.02
2023-04-19T12:09:28.159Z,1016.99
2023-04-19T12:10:28.164Z,1016.91
2023-04-19T12:11:28.136Z,1016.97
2023-04-19T12:12:28.141Z,1016.95